Time;durP1;ratioP1;P1;durP2;ratioP2;P2;SDS_P1;SDS_P2;PMS_P1;PMS_P2;Temp;Humidity;BMP_temperature;BMP_pressure;BME280_temperature;BME280_humidity;BME280_pressure;Samples;Min_cycle;Max_cycle;Signal;HPM_P1;HPM_P2
2022/03/18 00:00:25;;;;;;;16.47;9.30;;;;;;;-6.01;100.00;103040.89;1699654;84;21103;-61
2022/03/18 00:02:50;;;;;;;18.37;8.85;;;;;;;-6.06;100.00;103048.13;1711801;83;21031;-62
2022/03/18 00:05:17;;;;;;;20.77;9.30;;;;;;;-6.02;100.00;103041.68;1712497;83;21031;-61
2022/03/18 00:07:45;;;;;;;17.87;9.37;;;;;;;-6.09;100.00;103040.78;1712145;83;21075;-62
2022/03/18 00:10:14;;;;;;;21.33;8.90;;;;;;;-6.15;100.00;103048.77;1699178;84;21087;-62
2022/03/18 00:12:42;;;;;;;17.40;8.97;;;;;;;-6.16;100.00;103044.54;1712512;84;21036;-61
2022/03/18 00:15:12;;;;;;;17.90;9.43;;;;;;;-6.16;100.00;103050.81;1712198;83;21071;-62
2022/03/18 00:17:41;;;;;;;19.10;9.97;;;;;;;-6.23;100.00;103051.16;1712490;83;21063;-62
2022/03/18 00:20:12;;;;;;;19.30;10.10;;;;;;;-6.23;100.00;103050.30;1699483;84;21499;-62
2022/03/18 00:22:42;;;;;;;16.47;9.40;;;;;;;-6.27;100.00;103052.59;1718581;83;21559;-62
2022/03/18 00:25:11;;;;;;;18.83;10.03;;;;;;;-6.29;100.00;103047.86;1721074;83;21047;-62
2022/03/18 00:27:39;;;;;;;16.77;9.03;;;;;;;-6.33;100.00;103047.17;1721082;83;21031;-61
2022/03/18 00:30:09;;;;;;;16.87;9.67;;;;;;;-6.31;100.00;103048.14;1721124;83;21543;-62
2022/03/18 00:32:40;;;;;;;17.13;9.73;;;;;;;-6.37;100.00;103051.50;1721168;83;21514;-61
2022/03/18 00:35:10;;;;;;;20.53;9.70;;;;;;;-6.36;100.00;103051.14;1720840;83;21042;-62
2022/03/18 00:37:40;;;;;;;18.27;9.90;;;;;;;-6.41;100.00;103051.20;1721072;83;21083;-62
2022/03/18 00:40:10;;;;;;;19.30;10.37;;;;;;;-6.41;100.00;103046.19;1721035;83;21083;-62
2022/03/18 00:42:37;;;;;;;16.97;9.63;;;;;;;-6.42;100.00;103044.08;1721077;83;21546;-62
2022/03/18 00:45:06;;;;;;;18.53;9.63;;;;;;;-6.45;100.00;103048.88;1721002;83;21078;-61
2022/03/18 00:53:06;;;;;;;19.60;9.30;;;;;;;-6.48;100.00;103052.45;1720809;82;21027;-62
2022/03/18 00:55:34;;;;;;;19.13;9.20;;;;;;;-6.46;100.00;103045.90;1721095;82;21033;-62
2022/03/18 00:58:01;;;;;;;18.97;10.20;;;;;;;-6.46;100.00;103050.91;1702727;83;21082;-62
2022/03/18 01:00:28;;;;;;;18.30;9.73;;;;;;;-6.47;100.00;103045.03;1721147;83;21054;-62
2022/03/18 01:02:55;;;;;;;17.77;9.87;;;;;;;-6.53;100.00;103043.73;1702649;83;21063;-62
2022/03/18 01:05:23;;;;;;;22.40;10.30;;;;;;;-6.53;100.00;103045.88;1721060;83;21055;-62
2022/03/18 01:07:50;;;;;;;22.83;10.17;;;;;;;-6.53;100.00;103042.48;1721255;83;21043;-62
2022/03/18 01:10:18;;;;;;;18.17;10.00;;;;;;;-6.54;100.00;103049.53;1721024;83;21578;-63
2022/03/18 01:12:45;;;;;;;17.30;9.00;;;;;;;-6.59;100.00;103047.95;1721269;83;21088;-61
2022/03/18 01:15:14;;;;;;;22.07;10.27;;;;;;;-6.57;100.00;103051.81;1720836;83;21126;-62
2022/03/18 01:17:42;;;;;;;19.97;9.80;;;;;;;-6.58;100.00;103057.61;1720921;83;21023;-62
2022/03/18 01:20:11;;;;;;;18.77;9.70;;;;;;;-6.58;100.00;103051.34;1720799;83;21535;-63
2022/03/18 01:22:38;;;;;;;19.23;10.10;;;;;;;-6.58;100.00;103051.34;1720760;83;21090;-63
2022/03/18 01:25:06;;;;;;;19.53;9.67;;;;;;;-6.62;100.00;103047.76;1721195;83;21027;-62
2022/03/18 01:27:34;;;;;;;18.33;9.90;;;;;;;-6.56;100.00;103052.31;1721274;83;21523;-62
2022/03/18 01:30:01;;;;;;;19.57;9.70;;;;;;;-6.60;100.00;103053.73;1721303;82;21040;-63
2022/03/18 01:32:29;;;;;;;20.03;9.73;;;;;;;-6.65;100.00;103061.31;1720970;83;21078;-63
2022/03/18 01:34:56;;;;;;;22.10;10.57;;;;;;;-6.61;100.00;103048.23;1721254;83;21135;-63
2022/03/18 01:37:23;;;;;;;18.30;9.80;;;;;;;-6.61;100.00;103063.66;1721164;82;21066;-62
2022/03/18 01:39:51;;;;;;;19.30;9.43;;;;;;;-6.70;100.00;103053.89;1720904;83;21535;-63
2022/03/18 01:42:18;;;;;;;19.20;9.00;;;;;;;-6.68;100.00;103056.98;1721264;83;21043;-62
2022/03/18 01:44:47;;;;;;;19.30;9.27;;;;;;;-6.73;100.00;103059.57;1702848;83;21086;-63
2022/03/18 01:47:15;;;;;;;23.83;10.97;;;;;;;-6.68;100.00;103063.23;1701612;83;21004;-63
2022/03/18 01:49:43;;;;;;;18.60;10.67;;;;;;;-6.77;100.00;103056.73;1721053;82;21078;-63
2022/03/18 01:52:11;;;;;;;22.67;10.63;;;;;;;-6.75;100.00;103062.71;1721218;83;21031;-61
2022/03/18 01:54:49;;;;;;;18.23;9.83;;;;;;;-6.78;100.00;103061.27;1720964;83;21523;-61
2022/03/18 01:57:20;;;;;;;18.20;9.93;;;;;;;-6.83;100.00;103065.08;1721044;83;21046;-61
2022/03/18 01:59:50;;;;;;;19.23;10.00;;;;;;;-6.75;100.00;103072.38;1701523;83;20987;-61
2022/03/18 02:02:18;;;;;;;21.37;10.13;;;;;;;-6.83;100.00;103077.60;1721123;83;21040;-61
2022/03/18 02:04:46;;;;;;;18.97;10.10;;;;;;;-6.84;100.00;103075.48;1721186;83;21075;-63
2022/03/18 02:07:15;;;;;;;21.90;10.20;;;;;;;-6.83;100.00;103074.73;1721101;83;20999;-61
2022/03/18 02:09:44;;;;;;;21.20;9.50;;;;;;;-6.81;100.00;103073.21;1721171;83;21056;-62
2022/03/18 02:12:13;;;;;;;21.23;9.73;;;;;;;-6.82;100.00;103074.34;1720876;82;21023;-62
2022/03/18 02:14:46;;;;;;;19.87;10.13;;;;;;;-6.86;100.00;103073.27;1720803;83;21023;-61
2022/03/18 02:17:17;;;;;;;22.70;10.37;;;;;;;-6.93;100.00;103076.12;1720947;83;21031;-62
2022/03/18 02:19:47;;;;;;;24.37;10.57;;;;;;;-6.95;100.00;103085.17;1702882;83;21038;-61
2022/03/18 02:22:22;;;;;;;21.03;10.57;;;;;;;-6.93;100.00;103081.14;1718732;83;21067;-61
2022/03/18 02:24:52;;;;;;;22.00;10.20;;;;;;;-6.97;100.00;103083.80;1711715;83;21028;-62
2022/03/18 02:27:20;;;;;;;22.50;10.57;;;;;;;-6.98;100.00;103085.80;1712480;84;21486;-62
2022/03/18 02:29:48;;;;;;;20.60;9.90;;;;;;;-7.00;100.00;103083.97;1712232;83;21055;-62
2022/03/18 02:32:16;;;;;;;16.67;9.70;;;;;;;-6.95;100.00;103089.78;1712249;83;21007;-62
2022/03/18 02:34:44;;;;;;;23.07;9.90;;;;;;;-6.96;100.00;103090.53;1712612;84;21011;-61
2022/03/18 02:37:11;;;;;;;18.63;9.57;;;;;;;-7.00;100.00;103091.09;1712317;84;21051;-61
2022/03/18 02:39:38;;;;;;;20.07;9.53;;;;;;;-6.98;100.00;103093.31;1699530;84;21039;-61
2022/03/18 02:42:06;;;;;;;21.30;10.17;;;;;;;-6.99;100.00;103091.59;1712239;83;21051;-62
2022/03/18 02:44:33;;;;;;;22.53;10.80;;;;;;;-7.03;100.00;103094.64;1712637;83;21515;-61
2022/03/18 02:47:01;;;;;;;22.73;10.03;;;;;;;-7.05;100.00;103103.30;1712197;84;21075;-61
2022/03/18 02:49:30;;;;;;;20.17;10.27;;;;;;;-7.03;100.00;103100.02;1699398;84;21043;-61
2022/03/18 02:51:57;;;;;;;26.30;10.10;;;;;;;-7.08;100.00;103105.56;1712485;83;21043;-61
2022/03/18 02:54:24;;;;;;;19.60;11.07;;;;;;;-7.10;100.00;103110.84;1712267;84;21011;-61
2022/03/18 02:56:51;;;;;;;22.30;10.40;;;;;;;-7.13;100.00;103109.41;1712477;83;21527;-62
2022/03/18 02:59:20;;;;;;;23.40;11.07;;;;;;;-7.14;100.00;103112.65;1712247;83;21056;-62
2022/03/18 03:01:47;;;;;;;18.60;10.20;;;;;;;-7.11;100.00;103109.13;1712298;83;21066;-62
2022/03/18 03:04:15;;;;;;;22.23;11.13;;;;;;;-7.13;100.00;103113.55;1712541;83;21487;-62
2022/03/18 03:09:27;;;;;;;20.83;10.03;;;;;;;-7.12;100.00;103110.27;1712416;84;21555;-61
2022/03/18 03:11:56;;;;;;;18.87;10.03;;;;;;;-7.16;100.00;103117.93;1712120;83;21071;-62
2022/03/18 03:14:23;;;;;;;18.00;10.80;;;;;;;-7.14;100.00;103115.16;1712374;83;21143;-61
2022/03/18 03:16:50;;;;;;;19.73;9.63;;;;;;;-7.16;100.00;103119.58;1699322;84;21543;-62
2022/03/18 03:19:17;;;;;;;21.53;9.90;;;;;;;-7.17;100.00;103114.95;1712250;83;21083;-62
2022/03/18 03:21:44;;;;;;;20.90;9.57;;;;;;;-7.16;100.00;103114.56;1712258;83;21051;-62
2022/03/18 03:24:11;;;;;;;18.80;9.73;;;;;;;-7.09;100.00;103116.36;1721011;83;21071;-61
2022/03/18 03:26:38;;;;;;;20.37;10.07;;;;;;;-7.15;100.00;103115.07;1721526;83;21042;-62
2022/03/18 03:29:05;;;;;;;20.63;9.57;;;;;;;-7.16;100.00;103121.69;1721008;83;21570;-62
2022/03/18 03:31:32;;;;;;;18.37;9.50;;;;;;;-7.10;100.00;103128.37;1721611;83;21030;-61
2022/03/18 03:34:02;;;;;;;18.33;9.53;;;;;;;-7.10;100.00;103130.02;1721368;83;21035;-61
2022/03/18 03:36:30;;;;;;;17.73;9.23;;;;;;;-7.09;100.00;103131.77;1721597;83;21031;-61
2022/03/18 03:38:57;;;;;;;20.53;9.93;;;;;;;-7.11;100.00;103145.42;1721361;83;21042;-61
2022/03/18 03:41:24;;;;;;;18.20;9.27;;;;;;;-7.08;100.00;103152.27;1721489;83;21042;-61
2022/03/18 03:43:52;;;;;;;16.37;9.40;;;;;;;-7.09;100.00;103150.55;1721545;83;21464;-61
2022/03/18 03:46:20;;;;;;;19.87;9.97;;;;;;;-7.08;100.00;103149.38;1721363;83;21055;-61
2022/03/18 03:48:47;;;;;;;21.33;9.07;;;;;;;-7.07;100.00;103153.64;1721544;83;21086;-61
2022/03/18 03:51:14;;;;;;;22.13;9.67;;;;;;;-7.12;100.00;103165.33;1721399;83;21082;-61
2022/03/18 03:53:40;;;;;;;19.63;9.93;;;;;;;-7.13;100.00;103165.72;1721773;83;21079;-61
2022/03/18 03:56:07;;;;;;;18.50;10.27;;;;;;;-6.97;100.00;103169.33;1699977;83;21492;-61
2022/03/18 03:58:34;;;;;;;18.37;9.87;;;;;;;-7.06;100.00;103174.14;1700962;83;21035;-61
2022/03/18 04:01:01;;;;;;;16.87;9.27;;;;;;;-6.99;100.00;103175.86;1721726;83;21559;-61
2022/03/18 04:03:28;;;;;;;24.80;9.90;;;;;;;-6.90;100.00;103185.25;1701133;83;21047;-61
2022/03/18 04:05:57;;;;;;;19.53;9.83;;;;;;;-6.87;100.00;103187.59;1701538;83;21007;-61
2022/03/18 04:08:24;;;;;;;20.30;10.40;;;;;;;-6.85;100.00;103192.33;1699743;83;21007;-61
2022/03/18 04:10:54;;;;;;;19.07;9.33;;;;;;;-7.01;100.00;103193.63;1721677;83;20991;-61
2022/03/18 04:13:21;;;;;;;19.87;10.27;;;;;;;-6.96;100.00;103200.70;1699867;83;21535;-61
2022/03/18 04:15:48;;;;;;;19.20;9.67;;;;;;;-6.93;100.00;103199.69;1701431;83;21102;-61
2022/03/18 04:18:15;;;;;;;21.57;10.43;;;;;;;-6.89;100.00;103211.66;1721710;83;21031;-61
2022/03/18 04:20:42;;;;;;;22.10;9.30;;;;;;;-6.89;100.00;103212.05;1721502;83;21047;-61
2022/03/18 04:23:09;;;;;;;17.80;9.87;;;;;;;-6.93;100.00;103205.95;1703290;83;21065;-62
2022/03/18 04:25:37;;;;;;;20.03;10.33;;;;;;;-6.94;100.00;103212.09;1734138;83;21069;-61
2022/03/18 04:28:04;;;;;;;22.20;9.70;;;;;;;-6.89;100.00;103209.16;1733996;83;21046;-61
2022/03/18 04:30:31;;;;;;;22.53;10.50;;;;;;;-6.88;100.00;103216.28;1707447;83;21042;-60
2022/03/18 04:32:59;;;;;;;19.03;10.33;;;;;;;-6.86;100.00;103218.12;1734352;83;21038;-61
2022/03/18 04:35:26;;;;;;;17.07;9.87;;;;;;;-6.77;100.00;103216.67;1734116;83;21069;-61
2022/03/18 04:37:53;;;;;;;18.77;9.73;;;;;;;-6.68;100.00;103224.81;1734291;83;21550;-61
2022/03/18 04:40:20;;;;;;;16.43;8.57;;;;;;;-6.72;100.00;103218.23;1707641;83;21007;-61
2022/03/18 04:42:47;;;;;;;20.83;10.20;;;;;;;-6.67;100.00;103221.56;1734251;83;21542;-61
2022/03/18 04:45:14;;;;;;;18.47;9.80;;;;;;;-6.68;100.00;103219.80;1734418;83;21551;-60
2022/03/18 04:47:41;;;;;;;17.50;9.70;;;;;;;-6.73;100.00;103230.25;1734192;83;21141;-61
2022/03/18 04:50:10;;;;;;;19.57;9.80;;;;;;;-6.67;100.00;103225.67;1734483;83;21494;-62
2022/03/18 04:52:37;;;;;;;21.93;10.57;;;;;;;-6.66;100.00;103227.05;1734132;83;21574;-61
2022/03/18 04:55:08;;;;;;;21.70;10.30;;;;;;;-6.65;100.00;103232.56;1734306;83;21077;-61
2022/03/18 04:57:36;;;;;;;19.47;9.83;;;;;;;-6.66;100.00;103230.80;1734625;81;21427;-61
2022/03/18 05:00:05;;;;;;;22.00;10.27;;;;;;;-6.52;100.00;103230.91;1734264;83;21042;-61
2022/03/18 05:02:35;;;;;;;16.90;9.67;;;;;;;-6.48;100.00;103237.88;1734986;83;21014;-62
2022/03/18 05:05:08;;;;;;;22.13;10.47;;;;;;;-6.36;100.00;103235.36;1734301;83;21103;-62
2022/03/18 05:07:35;;;;;;;22.17;10.70;;;;;;;-6.46;100.00;103241.36;1734349;83;20990;-61
2022/03/18 05:10:03;;;;;;;16.93;9.60;;;;;;;-6.43;100.00;103238.19;1734266;83;21041;-62
2022/03/18 05:12:31;;;;;;;17.97;9.90;;;;;;;-6.50;100.00;103242.77;1734361;83;21038;-62
2022/03/18 05:14:59;;;;;;;19.70;9.23;;;;;;;-6.37;100.00;103240.73;1734412;83;21503;-61
2022/03/18 05:17:27;;;;;;;18.80;10.03;;;;;;;-6.25;100.00;103246.97;1707561;83;21133;-61
2022/03/18 05:19:53;;;;;;;17.90;9.17;;;;;;;-6.28;100.00;103259.31;1734457;82;21007;-62
2022/03/18 05:22:21;;;;;;;18.63;9.83;;;;;;;-6.36;100.00;103251.25;1734196;83;21554;-62
2022/03/18 05:24:49;;;;;;;17.70;9.53;;;;;;;-6.49;100.00;103256.16;1707636;83;21029;-62
2022/03/18 05:27:17;;;;;;;16.97;9.20;;;;;;;-6.40;100.00;103258.47;1734179;83;21054;-62
2022/03/18 05:29:46;;;;;;;19.67;9.60;;;;;;;-6.43;100.00;103261.99;1734386;83;21530;-61
2022/03/18 05:32:13;;;;;;;17.50;9.20;;;;;;;-6.47;100.00;103259.64;1707712;83;21102;-62
2022/03/18 05:34:39;;;;;;;19.57;10.23;;;;;;;-6.44;100.00;103258.62;1683925;83;21515;-62
2022/03/18 05:37:06;;;;;;;19.57;9.33;;;;;;;-6.35;100.00;103257.99;1734445;83;21042;-62
2022/03/18 05:39:34;;;;;;;18.00;8.97;;;;;;;-6.25;100.00;103265.38;1734140;83;21006;-61
2022/03/18 05:42:01;;;;;;;21.93;9.47;;;;;;;-6.38;100.00;103265.70;1734420;81;21068;-61
2022/03/18 05:44:28;;;;;;;19.17;9.43;;;;;;;-6.34;100.00;103264.77;1729574;83;21010;-62
2022/03/18 05:46:55;;;;;;;17.67;9.23;;;;;;;-6.33;100.00;103282.78;1672712;83;21101;-63
2022/03/18 05:49:23;;;;;;;19.60;10.13;;;;;;;-6.33;100.00;103274.40;1717685;83;21021;-62
2022/03/18 05:51:50;;;;;;;23.20;9.73;;;;;;;-6.36;100.00;103281.33;1717652;83;21014;-62
2022/03/18 05:54:17;;;;;;;22.60;10.63;;;;;;;-6.31;100.00;103285.02;1717416;83;20995;-63
2022/03/18 05:56:52;;;;;;;16.97;9.13;;;;;;;-6.17;100.00;103288.88;1720421;83;21034;-62
2022/03/18 05:59:27;;;;;;;20.77;11.03;;;;;;;-6.15;100.00;103289.84;1721324;83;21537;-62
2022/03/18 06:01:58;;;;;;;18.83;10.53;;;;;;;-6.05;100.00;103293.48;1718894;83;20975;-61
2022/03/18 06:04:26;;;;;;;21.87;10.20;;;;;;;-6.09;100.00;103299.91;1719811;83;21474;-61
2022/03/18 06:06:55;;;;;;;22.17;10.63;;;;;;;-5.93;100.00;103284.25;1725072;83;21086;-62
2022/03/18 06:12:10;;;;;;;22.63;10.87;;;;;;;-5.67;100.00;103305.23;1714826;83;21049;-60
2022/03/18 06:14:38;;;;;;;17.70;10.37;;;;;;;-5.56;100.00;103294.25;1724127;83;21014;-61
2022/03/18 06:17:06;;;;;;;22.57;9.10;;;;;;;-5.45;100.00;103297.11;1734222;83;21422;-61
2022/03/18 06:19:34;;;;;;;17.67;9.53;;;;;;;-5.26;100.00;103298.32;1699067;83;21058;-62
2022/03/18 06:22:04;;;;;;;23.23;9.80;;;;;;;-5.25;100.00;103316.40;1718922;83;20974;-62
2022/03/18 06:24:32;;;;;;;19.53;9.50;;;;;;;-5.51;100.00;103314.27;1705602;83;21024;-61
2022/03/18 06:27:00;;;;;;;17.80;9.40;;;;;;;-5.29;100.00;103313.17;1696100;83;21185;-62
2022/03/18 06:29:29;;;;;;;18.77;9.50;;;;;;;-5.11;100.00;103313.51;1698650;84;21058;-61
2022/03/18 06:31:59;;;;;;;21.73;9.40;;;;;;;-4.94;100.00;103319.26;1698307;84;21035;-63
2022/03/18 06:34:28;;;;;;;17.07;8.57;;;;;;;-4.66;100.00;103324.81;1700417;84;21507;-61
2022/03/18 06:37:03;;;;;;;15.00;8.07;;;;;;;-4.57;100.00;103330.41;1700409;83;20999;-61
2022/03/18 06:39:30;;;;;;;15.32;8.00;;;;;;;-4.32;100.00;103337.88;1697148;84;21071;-62
2022/03/18 06:41:57;;;;;;;16.80;8.50;;;;;;;-4.05;100.00;103332.81;1698337;84;21035;-61
2022/03/18 06:44:24;;;;;;;15.87;8.57;;;;;;;-4.11;100.00;103338.72;1698177;84;20972;-61
2022/03/18 06:46:51;;;;;;;14.63;8.23;;;;;;;-4.24;100.00;103335.45;1696346;84;21681;-63
2022/03/18 06:49:19;;;;;;;15.30;8.17;;;;;;;-4.17;100.00;103349.66;1700268;84;20972;-61
2022/03/18 06:51:47;;;;;;;15.43;7.70;;;;;;;-4.21;100.00;103346.08;1700415;83;21005;-61
2022/03/18 06:54:14;;;;;;;14.80;8.20;;;;;;;-4.24;100.00;103339.58;1695782;84;21543;-62
2022/03/18 06:56:40;;;;;;;14.27;8.00;;;;;;;-4.08;100.00;103336.38;1698260;84;21004;-61
2022/03/18 06:59:07;;;;;;;16.50;8.57;;;;;;;-3.96;100.00;103334.61;1695263;84;21024;-62
2022/03/18 07:01:34;;;;;;;17.23;8.20;;;;;;;-3.91;100.00;103332.00;1699587;84;21468;-61
2022/03/18 07:04:01;;;;;;;16.73;9.30;;;;;;;-4.16;100.00;103328.75;1698386;84;21015;-61
2022/03/18 07:06:30;;;;;;;14.47;8.40;;;;;;;-4.05;100.00;103344.99;1700259;84;21007;-61
2022/03/18 07:08:57;;;;;;;16.27;9.23;;;;;;;-4.03;100.00;103331.25;1710782;84;21015;-61
2022/03/18 07:11:23;;;;;;;19.60;8.70;;;;;;;-3.89;100.00;103335.48;1712184;83;21099;-62
2022/03/18 07:13:52;;;;;;;16.87;9.07;;;;;;;-3.89;100.00;103350.58;1712350;83;21031;-61
2022/03/18 07:19:07;;;;;;;19.23;9.90;;;;;;;-3.07;100.00;103349.97;1712462;84;21117;-61
2022/03/18 07:21:34;;;;;;;16.87;8.97;;;;;;;-2.66;100.00;103350.19;1712271;84;21575;-60
2022/03/18 07:24:02;;;;;;;18.20;9.33;;;;;;;-2.45;100.00;103350.53;1712101;83;21047;-60
2022/03/18 07:26:29;;;;;;;16.10;9.20;;;;;;;-2.67;100.00;103348.46;1712266;84;21043;-61
2022/03/18 07:28:56;;;;;;;16.67;8.30;;;;;;;-2.95;100.00;103352.73;1712257;83;21516;-62
2022/03/18 07:31:24;;;;;;;16.23;9.10;;;;;;;-2.68;100.00;103354.27;1712454;83;21011;-61
2022/03/18 07:33:52;;;;;;;16.77;9.20;;;;;;;-2.95;100.00;103358.63;1712188;83;21543;-61
2022/03/18 07:36:19;;;;;;;15.67;8.70;;;;;;;-2.94;100.00;103350.67;1712363;83;21075;-61
2022/03/18 07:38:46;;;;;;;15.30;8.70;;;;;;;-2.56;100.00;103348.19;1712290;83;20996;-61
2022/03/18 07:41:13;;;;;;;19.47;9.00;;;;;;;-2.83;100.00;103364.37;1712462;83;21528;-62
2022/03/18 07:43:40;;;;;;;15.50;8.60;;;;;;;-2.35;100.00;103348.50;1712161;84;21082;-62
2022/03/18 07:46:07;;;;;;;14.17;8.53;;;;;;;-1.59;99.89;103335.31;1712421;84;21563;-62
2022/03/18 07:48:39;;;;;;;15.47;8.97;;;;;;;-2.02;94.13;103347.81;1712251;84;21087;-61
2022/03/18 07:51:04;;;;;;;17.47;8.67;;;;;;;-1.92;93.44;103345.39;1712125;83;21551;-61
2022/03/18 07:53:31;;;;;;;16.10;7.37;;;;;;;-1.48;93.95;103345.58;1712406;84;21035;-61
2022/03/18 07:55:58;;;;;;;15.70;7.97;;;;;;;-1.11;88.52;103341.52;1712198;83;21532;-62
2022/03/18 07:58:25;;;;;;;14.17;8.33;;;;;;;-1.19;85.30;103349.11;1712440;83;21008;-61
2022/03/18 08:00:54;;;;;;;11.93;6.57;;;;;;;-1.47;86.39;103347.70;1712234;83;21524;-61
2022/03/18 08:03:27;;;;;;;12.57;6.60;;;;;;;-1.17;82.90;103345.00;1712454;83;21036;-61
2022/03/18 08:05:55;;;;;;;11.03;6.70;;;;;;;-1.51;80.59;103334.45;1712414;83;21371;-61
2022/03/18 08:08:21;;;;;;;11.85;6.95;;;;;;;-1.93;80.44;103347.42;1675859;84;21739;-61
2022/03/18 08:10:50;;;;;;;14.17;6.97;;;;;;;-2.32;82.26;103348.28;1699434;84;21538;-61
2022/03/18 08:13:19;;;;;;;13.40;7.73;;;;;;;-2.41;82.61;103345.27;1712452;83;21019;-61
2022/03/18 08:15:46;;;;;;;14.87;7.30;;;;;;;-2.35;83.01;103338.03;1712712;84;21015;-62
2022/03/18 08:18:14;;;;;;;12.63;7.93;;;;;;;-2.43;83.82;103350.62;1712271;84;21130;-62
2022/03/18 08:20:41;;;;;;;15.10;8.70;;;;;;;-2.03;84.65;103346.09;1712779;83;21490;-62
2022/03/18 08:23:14;;;;;;;13.40;7.50;;;;;;;-2.03;84.11;103351.50;1712285;84;21535;-61
2022/03/18 08:25:41;;;;;;;13.67;7.40;;;;;;;-1.84;82.29;103342.88;1720867;83;21023;-62
2022/03/18 08:28:09;;;;;;;16.60;7.17;;;;;;;-1.70;81.52;103338.55;1721102;83;21011;-61
2022/03/18 08:30:38;;;;;;;13.70;6.83;;;;;;;-1.96;80.49;103340.10;1721298;83;21524;-61
2022/03/18 08:33:06;;;;;;;10.47;6.60;;;;;;;-1.76;80.37;103339.49;1721219;82;21479;-62
2022/03/18 08:35:36;;;;;;;14.43;6.87;;;;;;;-1.77;79.95;103343.19;1720995;83;21039;-62
2022/03/18 08:38:07;;;;;;;14.13;7.13;;;;;;;-1.18;79.65;103340.32;1721037;83;21019;-62
2022/03/18 08:40:33;;;;;;;12.10;7.30;;;;;;;-0.72;78.81;103335.00;1721145;83;20999;-61
2022/03/18 08:43:05;;;;;;;12.87;7.00;;;;;;;-1.25;78.03;103345.47;1721209;83;20999;-62
2022/03/18 08:45:34;;;;;;;12.87;7.23;;;;;;;-1.24;77.74;103349.75;1721230;83;21066;-61
2022/03/18 08:48:01;;;;;;;12.17;6.63;;;;;;;-1.33;77.85;103359.78;1721176;83;21098;-61
2022/03/18 08:50:29;;;;;;;14.80;6.83;;;;;;;-1.58;78.77;103346.27;1720942;83;21031;-61
2022/03/18 08:52:57;;;;;;;13.83;7.47;;;;;;;-1.32;78.78;103347.20;1702567;83;21027;-63
2022/03/18 08:55:26;;;;;;;15.10;7.10;;;;;;;-1.12;79.74;103356.20;1719971;83;21681;-61
2022/03/18 08:57:53;;;;;;;15.57;7.60;;;;;;;-0.87;79.51;103345.25;1720207;83;21095;-61
2022/03/18 09:00:21;;;;;;;15.95;7.03;;;;;;;-0.70;78.50;103352.37;1702168;83;21023;-61
2022/03/18 09:02:50;;;;;;;11.23;5.93;;;;;;;-0.22;76.29;103345.37;1720407;83;20984;-61
2022/03/18 09:05:17;;;;;;;13.35;6.72;;;;;;;-0.43;74.17;103351.95;1701880;83;21594;-62
2022/03/18 09:07:46;;;;;;;12.13;7.00;;;;;;;-0.70;75.83;103351.52;1720298;83;21074;-62
2022/03/18 09:10:13;;;;;;;13.05;7.10;;;;;;;-0.55;77.68;103357.70;1720165;83;21055;-62
2022/03/18 09:12:46;;;;;;;10.93;6.83;;;;;;;-0.76;77.99;103353.34;1720340;83;21070;-62
2022/03/18 09:15:13;;;;;;;15.95;7.15;;;;;;;-0.57;78.53;103356.35;1720365;83;21035;-63
2022/03/18 09:17:40;;;;;;;16.05;9.03;;;;;;;-0.78;78.89;103356.20;1720269;83;21050;-62
2022/03/18 09:20:08;;;;;;;15.48;7.42;;;;;;;-0.88;81.40;103352.75;1719916;83;21129;-62
2022/03/18 09:22:36;;;;;;;15.53;8.80;;;;;;;-1.04;83.37;103362.09;1720283;83;21082;-63
2022/03/18 09:25:05;;;;;;;18.37;9.38;;;;;;;-1.24;83.61;103358.59;1720078;83;21106;-62
2022/03/18 09:27:33;;;;;;;10.60;6.33;;;;;;;-1.45;82.74;103360.88;1720298;83;21022;-62
2022/03/18 09:30:00;;;;;;;11.12;6.28;;;;;;;-1.11;83.18;103360.08;1720275;83;21011;-63
2022/03/18 09:32:28;;;;;;;13.40;7.33;;;;;;;-0.87;82.04;103354.50;1719873;82;21098;-63
2022/03/18 09:34:56;;;;;;;14.60;7.70;;;;;;;-0.81;81.21;103354.80;1720313;82;21097;-62
2022/03/18 09:37:23;;;;;;;12.93;7.33;;;;;;;-0.72;80.82;103360.29;1720107;83;21496;-62
2022/03/18 09:39:50;;;;;;;14.87;7.75;;;;;;;-0.97;80.31;103360.77;1720164;83;21133;-62
2022/03/18 09:42:17;;;;;;;10.28;6.30;;;;;;;-1.13;80.23;103349.42;1719988;83;21570;-62
2022/03/18 09:44:45;;;;;;;12.63;6.67;;;;;;;-0.85;79.69;103345.33;1719991;83;21055;-63
2022/03/18 09:47:12;;;;;;;12.13;6.65;;;;;;;-0.70;77.79;103354.05;1720632;83;21134;-61
2022/03/18 09:49:39;;;;;;;11.40;6.40;;;;;;;-0.63;77.25;103343.04;1720965;83;21039;-62
2022/03/18 09:52:07;;;;;;;10.20;6.40;;;;;;;-0.68;76.03;103345.73;1721228;83;21078;-62
2022/03/18 09:54:34;;;;;;;10.78;6.20;;;;;;;-0.68;75.79;103345.73;1720969;83;21047;-62
2022/03/18 09:57:04;;;;;;;10.32;6.15;;;;;;;-0.69;74.90;103345.65;1721191;83;21543;-61
2022/03/18 09:59:32;;;;;;;12.35;6.30;;;;;;;-0.69;75.21;103344.02;1721186;82;21055;-61
2022/03/18 10:02:30;;;;;;;11.38;6.40;;;;;;;-0.66;74.94;103354.26;1721163;83;21042;-62
2022/03/18 10:05:06;;;;;;;13.93;6.08;;;;;;;-0.71;75.05;103349.39;1713769;83;21050;-63
2022/03/18 10:07:33;;;;;;;13.65;6.92;;;;;;;-0.73;74.91;103354.77;1721201;83;21011;-62
2022/03/18 10:10:16;;;;;;;10.15;5.67;;;;;;;-0.63;75.72;103354.42;1721014;83;21035;-62
2022/03/18 10:12:47;;;;;;;;;;;;;;;-0.21;75.54;103348.77;1723677;83;21023;-62
2022/03/18 10:15:22;;;;;;;10.15;5.87;;;;;;;-0.15;74.10;103350.72;1721166;83;20107;-63
2022/03/18 10:17:57;;;;;;;9.53;6.12;;;;;;;-0.25;73.72;103341.42;1721189;83;21546;-61
2022/03/18 10:20:35;;;;;;;9.98;5.92;;;;;;;0.09;73.41;103339.16;1720936;83;21026;-63
2022/03/18 10:23:21;;;;;;;9.98;5.40;;;;;;;0.29;72.72;103343.00;1721211;83;21019;-62
2022/03/18 10:25:54;;;;;;;10.13;6.62;;;;;;;0.37;71.81;103345.46;1720804;83;21519;-63
2022/03/18 10:28:43;;;;;;;14.00;6.12;;;;;;;-0.24;72.80;103342.31;1721149;83;20979;-63
2022/03/18 10:31:19;;;;;;;11.48;6.33;;;;;;;-0.13;74.13;103347.45;1702662;83;21020;-62
2022/03/18 10:37:06;;;;;;;10.48;5.75;;;;;;;0.21;75.10;103341.79;1720840;83;21039;-63
2022/03/18 10:39:40;;;;;;;12.63;6.60;;;;;;;0.32;74.66;103345.64;1721085;83;21011;-62
2022/03/18 10:42:12;;;;;;;9.85;5.95;;;;;;;0.18;73.28;103351.36;1721219;83;21034;-62
2022/03/18 10:44:47;;;;;;;9.35;5.58;;;;;;;-0.02;73.76;103344.13;1721063;83;21027;-62
2022/03/18 10:47:35;;;;;;;;;;;;;;;-0.04;73.86;103338.13;1723361;83;21539;-62
2022/03/18 10:50:16;;;;;;;8.98;5.75;;;;;;;0.13;73.05;103337.23;1721211;83;20115;-62
2022/03/18 10:52:49;;;;;;;8.15;5.30;;;;;;;0.03;72.79;103347.75;1721054;83;21090;-61
2022/03/18 10:55:23;;;;;;;9.20;5.58;;;;;;;-0.20;74.21;103337.86;1719941;83;21594;-62
2022/03/18 10:58:03;;;;;;;10.88;5.67;;;;;;;-0.07;74.53;103330.00;1721329;83;21031;-62
2022/03/18 11:00:33;;;;;;;8.88;5.92;;;;;;;0.09;74.58;103339.58;1721205;83;21024;-62
2022/03/18 11:03:02;;;;;;;8.38;5.62;;;;;;;0.54;74.15;103325.91;1721188;83;21038;-62
2022/03/18 11:05:38;;;;;;;11.83;5.83;;;;;;;0.71;73.15;103319.89;1721186;83;21031;-62
2022/03/18 11:08:22;;;;;;;10.60;4.40;;;;;;;1.00;72.65;103312.20;1888367;75;22247;-62
2022/03/18 11:11:07;;;;;;;10.25;4.97;;;;;;;1.16;70.65;103337.80;1864108;77;21495;-62
2022/03/18 11:14:00;;;;;;;9.00;4.95;;;;;;;0.97;70.24;103334.04;1865025;77;21499;-61
2022/03/18 11:16:33;;;;;;;10.55;5.50;;;;;;;0.49;71.37;103331.20;1865067;77;21019;-62
2022/03/18 11:19:08;;;;;;;8.35;5.20;;;;;;;0.69;72.35;103329.48;1865267;77;21073;-62
2022/03/18 11:21:38;;;;;;;9.20;5.15;;;;;;;0.86;71.80;103320.92;1865222;77;21019;-62
2022/03/18 11:24:15;;;;;;;7.25;4.97;;;;;;;0.32;71.55;103333.84;1865399;77;21049;-61
2022/03/18 11:26:48;;;;;;;7.47;4.95;;;;;;;0.11;73.30;103336.30;1865046;77;21011;-62
2022/03/18 11:29:23;;;;;;;9.93;5.03;;;;;;;0.45;73.35;103322.59;1865203;77;21010;-61
2022/03/18 11:32:15;;;;;;;7.20;4.97;;;;;;;0.24;72.08;103328.83;1865239;77;21515;-62
2022/03/18 11:34:57;;;;;;;8.80;4.75;;;;;;;0.27;71.14;103324.33;1855614;77;21062;-62
2022/03/18 11:37:26;;;;;;;8.15;5.12;;;;;;;0.07;70.67;103329.36;1869072;75;21011;-62